Time;durP1;ratioP1;P1;durP2;ratioP2;P2;SDS_P1;SDS_P2;PMS_P1;PMS_P2;Temp;Humidity;BMP_temperature;BMP_pressure;BME280_temperature;BME280_humidity;BME280_pressure;Samples;Min_cycle;Max_cycle;Signal;HPM_P1;HPM_P2
2021/11/14 00:00:47;;;;;;;5.60;2.72;;;;;;;;;;5010348;28;20021;-73
2021/11/14 00:03:13;;;;;;;4.05;3.15;;;;;;;;;;5011160;28;20083;-73
2021/11/14 00:05:40;;;;;;;8.90;3.45;;;;;;;;;;5009953;28;20519;-73
2021/11/14 00:08:06;;;;;;;6.68;4.13;;;;;;;;;;5010619;28;20030;-73
2021/11/14 00:10:32;;;;;;;6.15;3.95;;;;;;;;;;5010385;28;20052;-73
2021/11/14 00:12:58;;;;;;;3.45;3.13;;;;;;;;;;5010211;28;20076;-74
2021/11/14 00:15:25;;;;;;;3.85;2.75;;;;;;;;;;5011034;28;20026;-73
2021/11/14 00:17:51;;;;;;;2.65;2.20;;;;;;;;;;5011151;28;20050;-73
2021/11/14 00:20:17;;;;;;;4.18;3.75;;;;;;;;;;5010070;28;20068;-73
2021/11/14 00:22:43;;;;;;;2.75;2.30;;;;;;;;;;5011342;28;20029;-73
2021/11/14 00:25:13;;;;;;;4.97;2.60;;;;;;;;;;5010850;28;20036;-72
2021/11/14 00:27:39;;;;;;;1.27;1.17;;;;;;;;;;5010571;28;20372;-73
2021/11/14 00:30:05;;;;;;;8.82;5.10;;;;;;;;;;5010489;28;20041;-73
2021/11/14 00:32:32;;;;;;;4.30;3.90;;;;;;;;;;5010420;28;20030;-73
2021/11/14 00:34:58;;;;;;;6.00;3.20;;;;;;;;;;5011209;28;20026;-75
2021/11/14 00:37:24;;;;;;;4.20;3.75;;;;;;;;;;5010628;28;20026;-72
2021/11/14 00:39:50;;;;;;;7.82;5.55;;;;;;;;;;5010325;28;20029;-75
2021/11/14 00:42:16;;;;;;;4.20;3.25;;;;;;;;;;5010892;28;20030;-74
2021/11/14 00:44:42;;;;;;;4.53;3.63;;;;;;;;;;5011257;28;20089;-74
2021/11/14 00:47:08;;;;;;;6.03;4.10;;;;;;;;;;5010233;28;20103;-72
2021/11/14 00:49:34;;;;;;;6.43;3.55;;;;;;;;;;5011049;28;20120;-73
2021/11/14 00:52:00;;;;;;;2.63;2.30;;;;;;;;;;5008876;28;20030;-75
2021/11/14 00:54:26;;;;;;;2.40;2.05;;;;;;;;;;5010877;28;20169;-74
2021/11/14 00:56:52;;;;;;;2.10;1.92;;;;;;;;;;5010537;28;20048;-74
2021/11/14 00:59:18;;;;;;;2.80;2.35;;;;;;;;;;5020951;28;20048;-74
2021/11/14 01:01:44;;;;;;;3.55;2.90;;;;;;;;;;5011402;28;20025;-74
2021/11/14 01:04:10;;;;;;;3.42;2.85;;;;;;;;;;5010663;28;20401;-74
2021/11/14 01:06:35;;;;;;;3.05;2.72;;;;;;;;;;5010554;28;20042;-74
2021/11/14 01:09:01;;;;;;;2.55;2.35;;;;;;;;;;5008894;28;20555;-74
2021/11/14 01:11:27;;;;;;;4.63;3.63;;;;;;;;;;5010040;28;20527;-75
2021/11/14 01:13:53;;;;;;;3.58;2.75;;;;;;;;;;5010356;28;20210;-74
2021/11/14 01:16:21;;;;;;;6.93;3.92;;;;;;;;;;5010591;28;20100;-74
2021/11/14 01:18:47;;;;;;;4.88;4.45;;;;;;;;;;5010565;28;20034;-75
2021/11/14 01:21:16;;;;;;;5.13;2.17;;;;;;;;;;5011051;28;20033;-74
2021/11/14 01:23:42;;;;;;;3.33;3.03;;;;;;;;;;5010924;28;20044;-74
2021/11/14 01:26:08;;;;;;;3.03;2.65;;;;;;;;;;5010557;28;20048;-73
2021/11/14 01:28:34;;;;;;;3.03;2.22;;;;;;;;;;5010924;28;20097;-74
2021/11/14 01:31:00;;;;;;;3.15;2.85;;;;;;;;;;5010210;28;20535;-73
2021/11/14 01:33:27;;;;;;;5.80;2.58;;;;;;;;;;5009775;28;20034;-74
2021/11/14 01:35:54;;;;;;;2.50;1.65;;;;;;;;;;5010606;28;20392;-74
2021/11/14 01:38:20;;;;;;;4.68;3.38;;;;;;;;;;5010052;28;20164;-74
2021/11/14 01:40:51;;;;;;;2.90;2.67;;;;;;;;;;5014307;28;20070;-74
2021/11/14 01:43:19;;;;;;;3.63;2.90;;;;;;;;;;5010324;28;20042;-74
2021/11/14 01:45:46;;;;;;;1.60;1.50;;;;;;;;;;5010471;28;20377;-73
2021/11/14 01:48:11;;;;;;;1.65;1.55;;;;;;;;;;5010304;28;20037;-74
2021/11/14 01:50:38;;;;;;;2.42;2.28;;;;;;;;;;5009442;28;20030;-74
2021/11/14 01:53:05;;;;;;;1.52;1.42;;;;;;;;;;5009858;28;20048;-74
2021/11/14 01:55:31;;;;;;;4.40;2.75;;;;;;;;;;5010070;28;20049;-74
2021/11/14 01:57:59;;;;;;;1.73;1.58;;;;;;;;;;5014485;28;20026;-74
2021/11/14 02:00:28;;;;;;;1.85;1.38;;;;;;;;;;5014804;28;20052;-74
2021/11/14 02:02:54;;;;;;;0.80;0.80;;;;;;;;;;5009412;28;20030;-74
2021/11/14 02:05:23;;;;;;;8.32;2.97;;;;;;;;;;5011164;28;20064;-75
2021/11/14 02:07:56;;;;;;;2.83;2.13;;;;;;;;;;5010844;28;20030;-75
2021/11/14 02:10:23;;;;;;;2.40;2.10;;;;;;;;;;5009024;28;20044;-74
2021/11/14 02:12:49;;;;;;;1.63;1.52;;;;;;;;;;5009781;28;20104;-74
2021/11/14 02:15:15;;;;;;;1.95;1.85;;;;;;;;;;5009823;28;20393;-74
2021/11/14 02:17:41;;;;;;;2.75;1.45;;;;;;;;;;5010137;28;20392;-74
2021/11/14 02:20:08;;;;;;;2.75;1.73;;;;;;;;;;5009485;28;20041;-74
2021/11/14 02:22:35;;;;;;;3.25;2.17;;;;;;;;;;5008800;28;20042;-74
2021/11/14 02:25:01;;;;;;;0.95;0.95;;;;;;;;;;5009265;28;20018;-74
2021/11/14 02:27:27;;;;;;;4.05;2.53;;;;;;;;;;5009424;28;20032;-75
2021/11/14 02:29:53;;;;;;;0.75;0.73;;;;;;;;;;5009761;28;20406;-74
2021/11/14 02:32:19;;;;;;;1.77;1.35;;;;;;;;;;5009220;28;20040;-74
2021/11/14 02:34:45;;;;;;;1.40;1.35;;;;;;;;;;5009813;28;20034;-74
2021/11/14 02:37:11;;;;;;;3.42;3.03;;;;;;;;;;5009212;28;20036;-75
2021/11/14 02:39:37;;;;;;;1.85;1.75;;;;;;;;;;5009394;28;20021;-74
2021/11/14 02:42:03;;;;;;;1.08;1.02;;;;;;;;;;5009348;28;20084;-74
2021/11/14 02:44:30;;;;;;;2.00;1.80;;;;;;;;;;5009614;28;20128;-74
2021/11/14 02:46:56;;;;;;;2.10;1.52;;;;;;;;;;5009523;28;20163;-74
2021/11/14 02:49:22;;;;;;;0.98;0.98;;;;;;;;;;5008995;28;20030;-74
2021/11/14 02:51:48;;;;;;;1.65;1.42;;;;;;;;;;5009074;28;20373;-75
2021/11/14 02:54:14;;;;;;;2.58;2.35;;;;;;;;;;5009064;28;20081;-75
2021/11/14 02:56:40;;;;;;;0.88;0.88;;;;;;;;;;5009450;28;20033;-75
2021/11/14 02:59:06;;;;;;;1.80;1.25;;;;;;;;;;5008725;28;20050;-74
2021/11/14 03:01:34;;;;;;;1.13;1.02;;;;;;;;;;5008838;28;20492;-74
2021/11/14 03:04:00;;;;;;;1.80;1.48;;;;;;;;;;5009283;28;20027;-74
2021/11/14 03:06:28;;;;;;;1.35;1.08;;;;;;;;;;5007925;28;20042;-74
2021/11/14 03:08:54;;;;;;;2.00;1.85;;;;;;;;;;5010513;28;20087;-74
2021/11/14 03:11:20;;;;;;;1.95;1.35;;;;;;;;;;5014104;28;20393;-74
2021/11/14 03:13:46;;;;;;;0.40;0.40;;;;;;;;;;5016117;28;20036;-74
2021/11/14 03:16:14;;;;;;;1.25;1.25;;;;;;;;;;5013293;28;20529;-74
2021/11/14 03:18:40;;;;;;;2.45;1.63;;;;;;;;;;5012901;28;20026;-74
2021/11/14 03:21:08;;;;;;;1.45;1.35;;;;;;;;;;5013122;28;20030;-74
2021/11/14 03:23:34;;;;;;;6.50;2.03;;;;;;;;;;5013532;28;20038;-74
2021/11/14 03:26:00;;;;;;;2.08;1.92;;;;;;;;;;5012468;28;20033;-74
2021/11/14 03:28:26;;;;;;;2.03;1.85;;;;;;;;;;5012439;28;20034;-74
2021/11/14 03:30:53;;;;;;;1.70;1.60;;;;;;;;;;5012573;28;20018;-74
2021/11/14 03:33:20;;;;;;;2.55;2.05;;;;;;;;;;5011916;28;20029;-74
2021/11/14 03:35:54;;;;;;;1.20;1.17;;;;;;;;;;5012406;28;20026;-74
2021/11/14 03:38:22;;;;;;;3.55;1.33;;;;;;;;;;5011736;28;20523;-74
2021/11/14 03:40:48;;;;;;;3.85;2.65;;;;;;;;;;5012573;28;20109;-74
2021/11/14 03:43:14;;;;;;;2.72;1.85;;;;;;;;;;5012075;28;20088;-74
2021/11/14 03:45:41;;;;;;;3.45;2.28;;;;;;;;;;5011738;28;20058;-74
2021/11/14 03:48:08;;;;;;;1.25;1.20;;;;;;;;;;5011907;28;20036;-74
2021/11/14 03:50:34;;;;;;;1.95;1.40;;;;;;;;;;5012170;28;20025;-74
2021/11/14 03:53:01;;;;;;;1.25;1.17;;;;;;;;;;5012200;28;20041;-74
2021/11/14 03:55:27;;;;;;;1.00;1.00;;;;;;;;;;5011794;28;20629;-74
2021/11/14 03:57:53;;;;;;;2.85;0.80;;;;;;;;;;5012349;28;20026;-74
2021/11/14 04:00:24;;;;;;;1.30;1.30;;;;;;;;;;5012176;28;20579;-75
2021/11/14 04:02:50;;;;;;;;;;;;;;;;;;5012683;28;20053;-74
2021/11/14 04:05:17;;;;;;;1.67;1.58;;;;;;;;;;5012132;28;20032;-75
2021/11/14 04:07:43;;;;;;;3.03;1.88;;;;;;;;;;5012504;28;20021;-74
2021/11/14 04:10:09;;;;;;;1.67;1.55;;;;;;;;;;5011957;28;20495;-74
2021/11/14 04:12:37;;;;;;;0.60;0.60;;;;;;;;;;5012171;28;20084;-74
2021/11/14 04:15:03;;;;;;;1.45;1.35;;;;;;;;;;5012141;28;20018;-74
2021/11/14 04:17:29;;;;;;;1.95;1.75;;;;;;;;;;5013917;28;20493;-74
2021/11/14 04:19:55;;;;;;;0.63;0.63;;;;;;;;;;5011894;28;20052;-75
2021/11/14 04:22:21;;;;;;;1.63;1.48;;;;;;;;;;5016966;28;20025;-74
2021/11/14 04:24:48;;;;;;;2.35;2.13;;;;;;;;;;5010697;28;20072;-74
2021/11/14 04:27:14;;;;;;;2.08;1.88;;;;;;;;;;5011413;28;20030;-74
2021/11/14 04:29:40;;;;;;;1.73;1.52;;;;;;;;;;5011471;28;20043;-75
2021/11/14 04:32:06;;;;;;;2.60;1.85;;;;;;;;;;5011337;28;20026;-75
2021/11/14 04:34:32;;;;;;;3.03;1.35;;;;;;;;;;5011391;28;20436;-74
2021/11/14 04:36:58;;;;;;;2.72;1.65;;;;;;;;;;5011535;28;20022;-75
2021/11/14 04:39:24;;;;;;;1.40;1.27;;;;;;;;;;5011941;28;20026;-74
2021/11/14 04:41:50;;;;;;;1.42;1.25;;;;;;;;;;5009739;28;20045;-74
2021/11/14 04:44:16;;;;;;;0.57;0.57;;;;;;;;;;5011328;28;20045;-74
2021/11/14 04:46:41;;;;;;;1.75;1.35;;;;;;;;;;5010869;28;20521;-74
2021/11/14 04:49:07;;;;;;;0.88;0.68;;;;;;;;;;5011283;28;20033;-74
2021/11/14 04:51:33;;;;;;;2.30;1.67;;;;;;;;;;5011443;28;20096;-74
2021/11/14 04:53:59;;;;;;;0.25;0.25;;;;;;;;;;5010981;28;20465;-74
2021/11/14 04:56:25;;;;;;;2.50;1.20;;;;;;;;;;5011502;28;20049;-74
2021/11/14 04:58:52;;;;;;;1.40;1.30;;;;;;;;;;5010995;28;20157;-74
2021/11/14 05:01:17;;;;;;;2.95;1.25;;;;;;;;;;5010599;28;20025;-74
2021/11/14 05:03:43;;;;;;;2.22;2.05;;;;;;;;;;5011033;28;20508;-74
2021/11/14 05:06:10;;;;;;;1.17;1.08;;;;;;;;;;5011024;28;20064;-75
2021/11/14 05:08:36;;;;;;;2.20;1.98;;;;;;;;;;5010908;28;20030;-74
2021/11/14 05:11:02;;;;;;;0.95;0.95;;;;;;;;;;5010298;28;20037;-75
2021/11/14 05:13:28;;;;;;;0.20;0.20;;;;;;;;;;5010784;28;20073;-74
2021/11/14 05:15:54;;;;;;;2.65;1.98;;;;;;;;;;5010920;28;20374;-74
2021/11/14 05:18:20;;;;;;;1.55;0.55;;;;;;;;;;5010254;28;20037;-74
2021/11/14 05:20:47;;;;;;;2.47;1.90;;;;;;;;;;5011096;28;20468;-74
2021/11/14 05:23:16;;;;;;;0.73;0.73;;;;;;;;;;5017293;28;20454;-74
2021/11/14 05:25:43;;;;;;;0.50;0.50;;;;;;;;;;5023311;28;20033;-75
2021/11/14 05:28:09;;;;;;;0.65;0.65;;;;;;;;;;5009819;28;20489;-74
2021/11/14 05:30:35;;;;;;;2.08;1.20;;;;;;;;;;5015179;28;20060;-74
2021/11/14 05:33:01;;;;;;;0.55;0.45;;;;;;;;;;5012330;28;20030;-74
2021/11/14 05:35:27;;;;;;;2.47;1.40;;;;;;;;;;5010033;28;20025;-74
2021/11/14 05:37:53;;;;;;;1.40;1.00;;;;;;;;;;5010248;28;20065;-75
2021/11/14 05:40:19;;;;;;;2.47;1.27;;;;;;;;;;5010261;28;20116;-74
2021/11/14 05:42:45;;;;;;;4.97;2.65;;;;;;;;;;5010095;28;20053;-74
2021/11/14 05:45:11;;;;;;;2.10;1.50;;;;;;;;;;5009897;28;20052;-74
2021/11/14 05:47:37;;;;;;;6.05;1.08;;;;;;;;;;5009534;28;20485;-74
2021/11/14 05:50:05;;;;;;;3.10;1.75;;;;;;;;;;5010056;28;20038;-74
2021/11/14 05:52:31;;;;;;;3.05;2.75;;;;;;;;;;5010173;28;20044;-74
2021/11/14 05:54:57;;;;;;;3.63;1.75;;;;;;;;;;5010022;28;20021;-75
2021/11/14 05:57:23;;;;;;;1.00;0.95;;;;;;;;;;5009770;28;20477;-74
2021/11/14 05:59:57;;;;;;;1.08;1.08;;;;;;;;;;5009569;28;20056;-74
2021/11/14 06:02:36;;;;;;;18.52;1.55;;;;;;;;;;5009504;28;20101;-74
2021/11/14 06:05:12;;;;;;;2.20;1.65;;;;;;;;;;5009188;28;20034;-75
2021/11/14 06:07:38;;;;;;;2.55;0.93;;;;;;;;;;5010576;28;20025;-75
2021/11/14 06:10:05;;;;;;;0.88;0.77;;;;;;;;;;5009240;28;20385;-74
2021/11/14 06:12:31;;;;;;;0.47;0.47;;;;;;;;;;5009149;28;20034;-74
2021/11/14 06:14:57;;;;;;;1.05;1.05;;;;;;;;;;5011795;28;20032;-74
2021/11/14 06:17:23;;;;;;;5.90;0.75;;;;;;;;;;5007649;28;20022;-75
2021/11/14 06:19:50;;;;;;;2.22;1.50;;;;;;;;;;5010481;28;20029;-74
2021/11/14 06:22:16;;;;;;;2.90;2.65;;;;;;;;;;5013751;28;20044;-75
2021/11/14 06:24:42;;;;;;;1.42;1.38;;;;;;;;;;5020665;28;20026;-74
2021/11/14 06:27:08;;;;;;;0.80;0.80;;;;;;;;;;5009084;28;20140;-73
2021/11/14 06:29:34;;;;;;;1.92;1.80;;;;;;;;;;5012129;28;20034;-71
2021/11/14 06:32:00;;;;;;;1.85;1.75;;;;;;;;;;5012473;28;20436;-72
2021/11/14 06:34:26;;;;;;;1.00;1.00;;;;;;;;;;5009573;28;20096;-71
2021/11/14 06:36:52;;;;;;;0.73;0.70;;;;;;;;;;5010664;28;20100;-72
2021/11/14 06:39:19;;;;;;;0.95;0.95;;;;;;;;;;5020739;28;20026;-72
2021/11/14 06:41:45;;;;;;;0.88;0.85;;;;;;;;;;5009246;28;20036;-74
2021/11/14 06:44:11;;;;;;;5.57;1.88;;;;;;;;;;5007694;28;20031;-71
2021/11/14 06:46:37;;;;;;;2.53;0.82;;;;;;;;;;5011362;28;20048;-71
2021/11/14 06:49:03;;;;;;;1.13;1.02;;;;;;;;;;5008636;28;20433;-71
2021/11/14 06:51:29;;;;;;;5.70;3.17;;;;;;;;;;5009091;28;20623;-71
2021/11/14 06:53:55;;;;;;;2.72;1.90;;;;;;;;;;5009323;28;20022;-71
2021/11/14 06:56:22;;;;;;;1.65;1.23;;;;;;;;;;5007445;28;20029;-71
2021/11/14 06:58:54;;;;;;;1.92;1.75;;;;;;;;;;5009206;28;20048;-71
2021/11/14 07:01:20;;;;;;;3.10;2.75;;;;;;;;;;5005997;28;20030;-71
2021/11/14 07:03:46;;;;;;;1.95;1.83;;;;;;;;;;5007442;28;20382;-70
2021/11/14 07:06:12;;;;;;;1.35;0.85;;;;;;;;;;5006981;28;20037;-71
2021/11/14 07:08:38;;;;;;;1.63;1.35;;;;;;;;;;5008575;28;20488;-70
2021/11/14 07:11:04;;;;;;;1.33;1.25;;;;;;;;;;5008733;28;20137;-71
2021/11/14 07:13:31;;;;;;;1.23;0.85;;;;;;;;;;5006491;28;20034;-70
2021/11/14 07:15:57;;;;;;;1.77;0.60;;;;;;;;;;5008450;28;20032;-71
2021/11/14 07:18:23;;;;;;;1.52;1.42;;;;;;;;;;5008000;28;20108;-71
2021/11/14 07:20:49;;;;;;;1.00;0.90;;;;;;;;;;5007867;28;20026;-71
2021/11/14 07:23:15;;;;;;;0.95;0.95;;;;;;;;;;5008041;28;20503;-73
2021/11/14 07:25:41;;;;;;;4.30;2.67;;;;;;;;;;5005812;28;20026;-72
2021/11/14 07:28:07;;;;;;;2.05;1.85;;;;;;;;;;5007500;28;20378;-72
2021/11/14 07:30:33;;;;;;;1.02;1.02;;;;;;;;;;5007062;28;20109;-72
2021/11/14 07:32:59;;;;;;;0.68;0.60;;;;;;;;;;5009154;28;21653;-75
2021/11/14 07:35:26;;;;;;;0.50;0.50;;;;;;;;;;5009457;28;20026;-74
2021/11/14 07:37:52;;;;;;;1.88;1.55;;;;;;;;;;5010145;28;20029;-75
2021/11/14 07:40:21;;;;;;;2.33;1.52;;;;;;;;;;5005645;28;20026;-73
2021/11/14 07:42:48;;;;;;;0.70;0.70;;;;;;;;;;5003213;28;20037;-73
2021/11/14 07:45:15;;;;;;;0.45;0.40;;;;;;;;;;5004709;28;20033;-74
2021/11/14 07:47:42;;;;;;;2.55;1.83;;;;;;;;;;5004257;28;20045;-73
2021/11/14 07:50:08;;;;;;;1.25;1.15;;;;;;;;;;5004951;28;20503;-73
2021/11/14 07:52:34;;;;;;;2.58;1.55;;;;;;;;;;5005546;28;20037;-73
2021/11/14 07:55:00;;;;;;;3.95;2.60;;;;;;;;;;5005150;28;20038;-73
2021/11/14 07:57:27;;;;;;;4.07;3.05;;;;;;;;;;5006082;28;20018;-73
2021/11/14 07:59:53;;;;;;;17.15;1.95;;;;;;;;;;5005067;28;20141;-72
2021/11/14 08:02:18;;;;;;;0.55;0.45;;;;;;;;;;5009435;28;20113;-73
2021/11/14 08:04:47;;;;;;;2.83;2.40;;;;;;;;;;5006982;28;20032;-72
2021/11/14 08:07:13;;;;;;;1.00;0.98;;;;;;;;;;5009835;28;20037;-73
2021/11/14 08:09:42;;;;;;;0.80;0.80;;;;;;;;;;5007736;28;20026;-72
2021/11/14 08:12:08;;;;;;;5.28;2.22;;;;;;;;;;5009488;28;20029;-74
2021/11/14 08:14:34;;;;;;;1.40;1.10;;;;;;;;;;5006275;28;20113;-73
2021/11/14 08:17:00;;;;;;;1.65;1.55;;;;;;;;;;5009722;28;20136;-73
2021/11/14 08:19:26;;;;;;;3.60;1.95;;;;;;;;;;5008599;28;20025;-73
2021/11/14 08:21:52;;;;;;;1.52;1.42;;;;;;;;;;5009659;28;20692;-73
2021/11/14 08:24:18;;;;;;;1.52;1.42;;;;;;;;;;5006468;28;20037;-73
2021/11/14 08:26:44;;;;;;;2.45;2.17;;;;;;;;;;5007829;28;20045;-72
2021/11/14 08:29:10;;;;;;;4.32;1.48;;;;;;;;;;5009636;28;20026;-72
2021/11/14 08:31:36;;;;;;;3.95;2.80;;;;;;;;;;5009802;28;20026;-71
2021/11/14 08:34:02;;;;;;;1.48;1.38;;;;;;;;;;5008751;28;20030;-72
2021/11/14 08:36:28;;;;;;;2.63;2.42;;;;;;;;;;5009424;28;20076;-72
2021/11/14 08:38:55;;;;;;;2.95;2.10;;;;;;;;;;5009608;28;20022;-72
2021/11/14 08:41:23;;;;;;;4.35;2.15;;;;;;;;;;5010116;28;20171;-73
2021/11/14 08:43:49;;;;;;;2.10;2.00;;;;;;;;;;5008586;28;20036;-73
2021/11/14 08:46:18;;;;;;;4.63;4.20;;;;;;;;;;5009348;28;20030;-73
2021/11/14 08:48:44;;;;;;;3.25;2.92;;;;;;;;;;5002571;28;20077;-72
2021/11/14 08:51:10;;;;;;;4.22;2.95;;;;;;;;;;5007696;28;20515;-72
2021/11/14 08:53:36;;;;;;;4.00;2.22;;;;;;;;;;5008283;28;20064;-72
2021/11/14 08:56:02;;;;;;;1.23;1.20;;;;;;;;;;5008665;28;20099;-73
2021/11/14 08:58:31;;;;;;;4.53;2.55;;;;;;;;;;5007831;28;20125;-73
2021/11/14 09:00:57;;;;;;;3.55;2.15;;;;;;;;;;5008252;28;20493;-72
2021/11/14 09:03:23;;;;;;;3.55;3.17;;;;;;;;;;5007975;28;20033;-73
2021/11/14 09:05:49;;;;;;;5.45;2.30;;;;;;;;;;5008191;28;20033;-72
2021/11/14 09:08:15;;;;;;;5.35;3.55;;;;;;;;;;5008221;28;20040;-73
2021/11/14 09:10:44;;;;;;;8.18;2.72;;;;;;;;;;5005794;28;20125;-72
2021/11/14 09:13:09;;;;;;;2.88;2.67;;;;;;;;;;5007404;28;20033;-73
2021/11/14 09:15:35;;;;;;;2.88;2.63;;;;;;;;;;5007053;28;20042;-73
2021/11/14 09:18:02;;;;;;;4.30;3.78;;;;;;;;;;5008433;28;20087;-70
2021/11/14 09:20:28;;;;;;;1.67;1.58;;;;;;;;;;5007919;28;20079;-70
2021/11/14 09:22:54;;;;;;;4.80;3.70;;;;;;;;;;5008664;28;20103;-69
2021/11/14 09:25:21;;;;;;;4.43;3.22;;;;;;;;;;5009086;28;20092;-69
2021/11/14 09:27:47;;;;;;;1.38;1.13;;;;;;;;;;5007327;28;20034;-69
2021/11/14 09:30:13;;;;;;;1.58;1.52;;;;;;;;;;5008532;28;20034;-70
2021/11/14 09:32:39;;;;;;;3.78;3.47;;;;;;;;;;5006670;28;20030;-70
2021/11/14 09:35:05;;;;;;;5.03;3.78;;;;;;;;;;5006745;28;20507;-69
2021/11/14 09:37:31;;;;;;;1.95;1.27;;;;;;;;;;5007764;28;20025;-71
2021/11/14 09:39:57;;;;;;;8.13;3.55;;;;;;;;;;5008015;28;20033;-71
2021/11/14 09:42:24;;;;;;;8.25;2.13;;;;;;;;;;5006157;28;20033;-71
2021/11/14 09:44:51;;;;;;;2.90;2.65;;;;;;;;;;5007989;28;20037;-71
2021/11/14 09:47:16;;;;;;;4.63;3.00;;;;;;;;;;5008623;28;20037;-71
2021/11/14 09:49:42;;;;;;;2.92;1.63;;;;;;;;;;5007304;28;20025;-71
2021/11/14 09:52:10;;;;;;;10.18;3.78;;;;;;;;;;5008585;28;20036;-71
2021/11/14 09:54:36;;;;;;;4.93;2.05;;;;;;;;;;5008110;28;20120;-71
2021/11/14 09:57:02;;;;;;;2.13;1.92;;;;;;;;;;5007717;28;20116;-72
2021/11/14 09:59:28;;;;;;;13.00;3.13;;;;;;;;;;5006187;28;20037;-71
2021/11/14 10:01:56;;;;;;;7.22;2.67;;;;;;;;;;5007578;28;20034;-71
2021/11/14 10:04:23;;;;;;;2.95;2.75;;;;;;;;;;5006973;28;20029;-71
2021/11/14 10:07:09;;;;;;;3.75;2.58;;;;;;;;;;5006723;28;20033;-70
2021/11/14 10:09:38;;;;;;;4.35;2.70;;;;;;;;;;5006668;28;20061;-71
2021/11/14 10:12:13;;;;;;;5.72;3.95;;;;;;;;;;5007027;28;20108;-71
2021/11/14 10:14:39;;;;;;;3.50;3.20;;;;;;;;;;5007091;28;20033;-72
2021/11/14 10:17:16;;;;;;;13.18;3.15;;;;;;;;;;5007680;28;20120;-71
2021/11/14 10:19:42;;;;;;;30.02;5.82;;;;;;;;;;5007389;28;20404;-70
2021/11/14 10:22:08;;;;;;;12.45;2.13;;;;;;;;;;5006567;28;20022;-70
2021/11/14 10:24:34;;;;;;;3.72;3.38;;;;;;;;;;5006275;28;20085;-70
2021/11/14 10:27:09;;;;;;;6.00;3.50;;;;;;;;;;5007073;28;20033;-70
2021/11/14 10:29:39;;;;;;;3.42;2.60;;;;;;;;;;5006539;28;20042;-70
2021/11/14 10:32:09;;;;;;;3.35;2.45;;;;;;;;;;5007098;28;20044;-70
2021/11/14 10:34:44;;;;;;;4.07;3.60;;;;;;;;;;5005719;28;20033;-70
2021/11/14 10:37:11;;;;;;;3.45;2.05;;;;;;;;;;5006752;28;20489;-71
2021/11/14 10:39:40;;;;;;;5.40;4.18;;;;;;;;;;5007001;28;20046;-70
2021/11/14 10:42:18;;;;;;;3.72;2.85;;;;;;;;;;5007189;28;20022;-70
2021/11/14 10:44:52;;;;;;;6.53;3.50;;;;;;;;;;5006823;28;20136;-70
2021/11/14 10:47:22;;;;;;;3.38;3.00;;;;;;;;;;5008006;28;20022;-72
2021/11/14 10:49:59;;;;;;;3.38;2.72;;;;;;;;;;5006506;28;20128;-73
2021/11/14 10:52:26;;;;;;;3.55;2.30;;;;;;;;;;5006981;28;20390;-72
2021/11/14 10:54:53;;;;;;;3.30;2.88;;;;;;;;;;5006158;28;20080;-71
2021/11/14 10:57:19;;;;;;;4.35;3.65;;;;;;;;;;5006818;28;20435;-73
2021/11/14 10:59:50;;;;;;;2.20;2.10;;;;;;;;;;5005340;28;20042;-73
2021/11/14 11:02:17;;;;;;;3.10;2.90;;;;;;;;;;5004063;28;20872;-73
2021/11/14 11:04:43;;;;;;;2.40;2.20;;;;;;;;;;5004622;28;20089;-74
2021/11/14 11:07:12;;;;;;;8.20;2.65;;;;;;;;;;5006833;28;20541;-72
2021/11/14 11:09:39;;;;;;;7.72;3.42;;;;;;;;;;5006614;28;20057;-73
2021/11/14 11:12:26;;;;;;;6.38;2.58;;;;;;;;;;5006350;28;20525;-73
2021/11/14 11:14:57;;;;;;;6.28;4.63;;;;;;;;;;5006299;28;20392;-71
2021/11/14 11:17:23;;;;;;;7.32;2.85;;;;;;;;;;5006208;28;20030;-72
2021/11/14 11:19:49;;;;;;;7.20;3.67;;;;;;;;;;5008164;28;20144;-76
2021/11/14 11:22:15;;;;;;;3.65;3.33;;;;;;;;;;5008175;28;20105;-73
2021/11/14 11:24:48;;;;;;;3.65;2.88;;;;;;;;;;5007127;28;20389;-72
2021/11/14 11:27:14;;;;;;;7.88;4.35;;;;;;;;;;5007531;28;20034;-73
2021/11/14 11:29:41;;;;;;;2.65;2.25;;;;;;;;;;5007817;28;20452;-72
2021/11/14 11:32:10;;;;;;;3.42;3.08;;;;;;;;;;5008400;28;20022;-73
2021/11/14 11:34:38;;;;;;;7.32;2.60;;;;;;;;;;5008083;28;20042;-72
2021/11/14 11:37:04;;;;;;;1.63;1.52;;;;;;;;;;5008568;28;20038;-71
2021/11/14 11:39:30;;;;;;;8.88;4.80;;;;;;;;;;5007851;28;20029;-72
2021/11/14 11:41:59;;;;;;;3.50;3.30;;;;;;;;;;5010321;28;20037;-73
2021/11/14 11:44:31;;;;;;;12.52;6.63;;;;;;;;;;5008764;28;20112;-73
2021/11/14 11:47:05;;;;;;;7.80;4.22;;;;;;;;;;5001435;28;20048;-71
2021/11/14 11:49:31;;;;;;;10.52;6.28;;;;;;;;;;5004758;28;20041;-73
2021/11/14 11:52:02;;;;;;;5.28;3.15;;;;;;;;;;5003640;28;20504;-73
2021/11/14 11:54:33;;;;;;;3.60;3.30;;;;;;;;;;5009623;28;20053;-73
2021/11/14 11:57:10;;;;;;;8.75;2.78;;;;;;;;;;5003670;28;20276;-73
2021/11/14 11:59:39;;;;;;;5.57;3.85;;;;;;;;;;4999902;28;20440;-73
2021/11/14 12:02:14;;;;;;;2.95;2.75;;;;;;;;;;5000401;28;20046;-74
2021/11/14 12:04:41;;;;;;;3.10;2.72;;;;;;;;;;5008211;28;20121;-73
2021/11/14 12:07:12;;;;;;;3.67;2.55;;;;;;;;;;5006625;28;20050;-73
2021/11/14 12:09:47;;;;;;;5.95;4.93;;;;;;;;;;5006053;28;20045;-74
2021/11/14 12:12:20;;;;;;;8.43;3.85;;;;;;;;;;4997877;28;20052;-73
2021/11/14 12:14:48;;;;;;;14.48;5.28;;;;;;;;;;5001939;28;20030;-74
2021/11/14 12:17:33;;;;;;;7.38;2.83;;;;;;;;;;5004630;28;20033;-73
2021/11/14 12:20:11;;;;;;;3.00;2.83;;;;;;;;;;5002897;28;20029;-73
2021/11/14 12:22:39;;;;;;;4.95;4.28;;;;;;;;;;5004213;28;20022;-73
2021/11/14 12:25:05;;;;;;;6.55;4.28;;;;;;;;;;5003554;28;20375;-73
2021/11/14 12:27:35;;;;;;;3.65;3.30;;;;;;;;;;5005398;28;20049;-73
2021/11/14 12:30:10;;;;;;;5.53;3.65;;;;;;;;;;4999642;28;20428;-78
2021/11/14 12:32:43;;;;;;;8.27;3.30;;;;;;;;;;4999093;28;20033;-73
2021/11/14 12:35:18;;;;;;;11.05;4.10;;;;;;;;;;5001103;28;20030;-73
2021/11/14 12:37:52;;;;;;;5.82;5.10;;;;;;;;;;5005892;28;20384;-73
2021/11/14 12:40:22;;;;;;;14.20;4.00;;;;;;;;;;5003088;28;20021;-76
2021/11/14 12:42:52;;;;;;;4.22;3.15;;;;;;;;;;5008137;28;20038;-83
2021/11/14 12:45:36;;;;;;;5.22;4.13;;;;;;;;;;5009518;28;20116;-74
2021/11/14 12:48:10;;;;;;;7.72;3.10;;;;;;;;;;5009025;28;20041;-74
2021/11/14 12:50:36;;;;;;;4.78;4.35;;;;;;;;;;5009269;28;20025;-74
2021/11/14 12:53:12;;;;;;;7.18;3.85;;;;;;;;;;4999709;28;20040;-75
2021/11/14 12:55:40;;;;;;;8.10;3.92;;;;;;;;;;5005812;28;20037;-79
2021/11/14 12:58:08;;;;;;;4.47;3.13;;;;;;;;;;5006019;28;20026;-73
2021/11/14 13:00:46;;;;;;;5.75;5.22;;;;;;;;;;5001352;28;20050;-72
2021/11/14 13:03:28;;;;;;;20.63;3.45;;;;;;;;;;5006179;28;20026;-74
2021/11/14 13:05:56;;;;;;;8.65;3.42;;;;;;;;;;5005655;28;20026;-74
2021/11/14 13:08:27;;;;;;;2.90;2.42;;;;;;;;;;5005707;28;20504;-75
2021/11/14 13:10:55;;;;;;;5.68;3.22;;;;;;;;;;5003480;28;20037;-73
2021/11/14 13:13:31;;;;;;;6.68;3.33;;;;;;;;;;5006700;28;20126;-74
2021/11/14 13:15:58;;;;;;;3.13;2.78;;;;;;;;;;5004911;28;20042;-73
2021/11/14 13:18:27;;;;;;;7.40;4.07;;;;;;;;;;5001575;28;20101;-73
2021/11/14 13:20:55;;;;;;;5.50;3.88;;;;;;;;;;5002004;28;20149;-74
2021/11/14 13:23:21;;;;;;;4.70;3.72;;;;;;;;;;5007427;28;20121;-73
2021/11/14 13:25:50;;;;;;;3.33;3.10;;;;;;;;;;5008463;28;20030;-74
2021/11/14 13:28:16;;;;;;;8.55;4.18;;;;;;;;;;5004977;28;20139;-74
2021/11/14 13:30:43;;;;;;;9.15;3.72;;;;;;;;;;5006306;28;20162;-73
2021/11/14 13:33:13;;;;;;;1.60;1.45;;;;;;;;;;5003756;28;20170;-74
2021/11/14 13:35:46;;;;;;;6.30;2.97;;;;;;;;;;5003331;28;20050;-74
2021/11/14 13:38:12;;;;;;;5.00;3.28;;;;;;;;;;5001174;28;20116;-73
2021/11/14 13:40:38;;;;;;;6.25;1.90;;;;;;;;;;5007162;28;20022;-74
2021/11/14 13:43:06;;;;;;;4.45;3.42;;;;;;;;;;5006776;28;20124;-74
2021/11/14 13:45:33;;;;;;;3.75;3.20;;;;;;;;;;5006769;28;20021;-74
2021/11/14 13:48:07;;;;;;;10.45;6.55;;;;;;;;;;5007979;28;20025;-73
2021/11/14 13:50:38;;;;;;;1.10;1.08;;;;;;;;;;4997423;28;20472;-73
2021/11/14 13:53:04;;;;;;;3.33;2.25;;;;;;;;;;4997536;28;20762;-74
2021/11/14 13:55:35;;;;;;;2.42;2.30;;;;;;;;;;4996314;28;20034;-74
2021/11/14 13:58:01;;;;;;;3.35;3.13;;;;;;;;;;4996388;28;20026;-74
2021/11/14 14:00:28;;;;;;;3.22;2.83;;;;;;;;;;4995171;28;20895;-74
2021/11/14 14:02:58;;;;;;;3.95;3.08;;;;;;;;;;5000116;28;20037;-75
2021/11/14 14:05:25;;;;;;;3.30;2.95;;;;;;;;;;4998435;28;20034;-75
2021/11/14 14:07:54;;;;;;;2.95;2.65;;;;;;;;;;4994613;28;20027;-76
2021/11/14 14:10:22;;;;;;;3.33;3.05;;;;;;;;;;5003620;28;20129;-75
2021/11/14 14:12:54;;;;;;;13.95;3.42;;;;;;;;;;4996270;28;20041;-75
2021/11/14 14:15:40;;;;;;;20.35;3.10;;;;;;;;;;4999245;28;20030;-74
2021/11/14 14:18:10;;;;;;;3.88;3.50;;;;;;;;;;4997375;28;20026;-75
2021/11/14 14:20:39;;;;;;;6.70;4.47;;;;;;;;;;5002590;28;20014;-75
2021/11/14 14:23:05;;;;;;;2.55;2.10;;;;;;;;;;5000353;28;20042;-74
2021/11/14 14:25:34;;;;;;;3.30;3.00;;;;;;;;;;5002023;28;20554;-73
2021/11/14 14:28:02;;;;;;;3.45;2.60;;;;;;;;;;4999713;28;20670;-70
2021/11/14 14:30:38;;;;;;;3.05;2.38;;;;;;;;;;5001788;28;20455;-72
2021/11/14 14:33:27;;;;;;;9.63;3.17;;;;;;;;;;4998094;28;20370;-71
2021/11/14 14:36:01;;;;;;;1.80;1.48;;;;;;;;;;5007670;28;20048;-71
2021/11/14 14:38:31;;;;;;;3.95;2.30;;;;;;;;;;5001903;28;20022;-72
2021/11/14 14:41:03;;;;;;;1.50;1.38;;;;;;;;;;5001451;28;20036;-71
2021/11/14 14:43:40;;;;;;;1.05;1.05;;;;;;;;;;5002959;28;20029;-70
2021/11/14 14:46:07;;;;;;;7.53;3.13;;;;;;;;;;5002360;28;20033;-71